sensor_id;sensor_type;location;lat;lon;timestamp;P1;durP1;ratioP1;P2;durP2;ratioP2
35257;SDS011;21385;50.878;8.050;2023-02-15T00:01:41;5.00;;;4.50;;
35257;SDS011;21385;50.878;8.050;2023-02-15T00:04:07;7.47;;;4.70;;
35257;SDS011;21385;50.878;8.050;2023-02-15T00:06:34;10.93;;;4.28;;
35257;SDS011;21385;50.878;8.050;2023-02-15T00:09:00;4.68;;;4.20;;
35257;SDS011;21385;50.878;8.050;2023-02-15T00:11:26;3.95;;;3.28;;
35257;SDS011;21385;50.878;8.050;2023-02-15T00:14:11;3.15;;;2.75;;
35257;SDS011;21385;50.878;8.050;2023-02-15T00:16:39;4.57;;;3.33;;
35257;SDS011;21385;50.878;8.050;2023-02-15T00:19:05;10.48;;;4.85;;
35257;SDS011;21385;50.878;8.050;2023-02-15T00:21:32;4.28;;;3.45;;
35257;SDS011;21385;50.878;8.050;2023-02-15T00:24:00;12.13;;;4.88;;
35257;SDS011;21385;50.878;8.050;2023-02-15T00:26:26;9.05;;;4.53;;
35257;SDS011;21385;50.878;8.050;2023-02-15T00:28:53;8.77;;;4.38;;
35257;SDS011;21385;50.878;8.050;2023-02-15T00:31:19;4.10;;;3.75;;
35257;SDS011;21385;50.878;8.050;2023-02-15T00:33:45;6.07;;;4.68;;
35257;SDS011;21385;50.878;8.050;2023-02-15T00:36:11;6.32;;;3.63;;
35257;SDS011;21385;50.878;8.050;2023-02-15T00:38:37;7.47;;;3.97;;
35257;SDS011;21385;50.878;8.050;2023-02-15T00:41:04;9.45;;;4.78;;
35257;SDS011;21385;50.878;8.050;2023-02-15T00:43:31;4.60;;;3.63;;
35257;SDS011;21385;50.878;8.050;2023-02-15T00:45:57;5.38;;;4.13;;
35257;SDS011;21385;50.878;8.050;2023-02-15T00:48:24;8.20;;;4.53;;
35257;SDS011;21385;50.878;8.050;2023-02-15T00:50:56;9.27;;;4.22;;
35257;SDS011;21385;50.878;8.050;2023-02-15T00:53:24;5.70;;;3.78;;
35257;SDS011;21385;50.878;8.050;2023-02-15T00:55:50;6.57;;;3.33;;
35257;SDS011;21385;50.878;8.050;2023-02-15T00:58:16;4.05;;;3.22;;
35257;SDS011;21385;50.878;8.050;2023-02-15T01:00:45;6.75;;;4.78;;
35257;SDS011;21385;50.878;8.050;2023-02-15T01:03:11;8.23;;;5.03;;
35257;SDS011;21385;50.878;8.050;2023-02-15T01:05:39;4.78;;;3.50;;
35257;SDS011;21385;50.878;8.050;2023-02-15T01:08:05;5.93;;;3.63;;
35257;SDS011;21385;50.878;8.050;2023-02-15T01:10:31;6.38;;;3.17;;
35257;SDS011;21385;50.878;8.050;2023-02-15T01:12:56;4.55;;;3.13;;
35257;SDS011;21385;50.878;8.050;2023-02-15T01:15:23;4.75;;;4.05;;
35257;SDS011;21385;50.878;8.050;2023-02-15T01:17:49;8.50;;;3.95;;
35257;SDS011;21385;50.878;8.050;2023-02-15T01:20:22;4.45;;;3.47;;
35257;SDS011;21385;50.878;8.050;2023-02-15T01:22:49;3.85;;;3.50;;
35257;SDS011;21385;50.878;8.050;2023-02-15T01:25:16;4.05;;;3.47;;
35257;SDS011;21385;50.878;8.050;2023-02-15T01:27:42;6.47;;;3.13;;
35257;SDS011;21385;50.878;8.050;2023-02-15T01:30:08;2.33;;;1.75;;
35257;SDS011;21385;50.878;8.050;2023-02-15T01:32:34;3.00;;;2.50;;
35257;SDS011;21385;50.878;8.050;2023-02-15T01:35:00;4.53;;;3.90;;
35257;SDS011;21385;50.878;8.050;2023-02-15T01:37:25;4.82;;;3.78;;
35257;SDS011;21385;50.878;8.050;2023-02-15T01:39:51;4.82;;;2.50;;
35257;SDS011;21385;50.878;8.050;2023-02-15T01:42:22;3.00;;;2.78;;
35257;SDS011;21385;50.878;8.050;2023-02-15T01:47:23;6.50;;;3.55;;
35257;SDS011;21385;50.878;8.050;2023-02-15T01:50:10;6.97;;;2.75;;
35257;SDS011;21385;50.878;8.050;2023-02-15T01:52:45;12.82;;;2.53;;
35257;SDS011;21385;50.878;8.050;2023-02-15T01:55:16;3.08;;;2.22;;
35257;SDS011;21385;50.878;8.050;2023-02-15T01:57:42;4.72;;;2.40;;
35257;SDS011;21385;50.878;8.050;2023-02-15T02:00:10;3.35;;;2.55;;
35257;SDS011;21385;50.878;8.050;2023-02-15T02:02:37;4.63;;;2.75;;
35257;SDS011;21385;50.878;8.050;2023-02-15T02:05:05;9.63;;;4.00;;
35257;SDS011;21385;50.878;8.050;2023-02-15T02:07:36;3.03;;;2.65;;
35257;SDS011;21385;50.878;8.050;2023-02-15T02:10:05;6.07;;;3.22;;
35257;SDS011;21385;50.878;8.050;2023-02-15T02:12:32;6.72;;;4.15;;
35257;SDS011;21385;50.878;8.050;2023-02-15T02:14:58;4.47;;;2.13;;
35257;SDS011;21385;50.878;8.050;2023-02-15T02:38:59;4.05;;;2.60;;
35257;SDS011;21385;50.878;8.050;2023-02-15T02:44:42;8.30;;;3.55;;
35257;SDS011;21385;50.878;8.050;2023-02-15T02:49:51;2.67;;;2.35;;
35257;SDS011;21385;50.878;8.050;2023-02-15T02:55:51;3.45;;;2.92;;
35257;SDS011;21385;50.878;8.050;2023-02-15T03:00:46;6.50;;;2.00;;
35257;SDS011;21385;50.878;8.050;2023-02-15T03:03:20;2.42;;;2.22;;
35257;SDS011;21385;50.878;8.050;2023-02-15T03:06:28;2.67;;;2.45;;
35257;SDS011;21385;50.878;8.050;2023-02-15T03:09:01;2.33;;;2.22;;
35257;SDS011;21385;50.878;8.050;2023-02-15T03:11:39;2.25;;;1.65;;
35257;SDS011;21385;50.878;8.050;2023-02-15T03:14:06;2.15;;;1.90;;
35257;SDS011;21385;50.878;8.050;2023-02-15T03:16:32;3.13;;;2.28;;
35257;SDS011;21385;50.878;8.050;2023-02-15T03:19:00;4.22;;;3.08;;
35257;SDS011;21385;50.878;8.050;2023-02-15T03:21:41;3.28;;;2.60;;
35257;SDS011;21385;50.878;8.050;2023-02-15T03:24:16;2.95;;;2.75;;
35257;SDS011;21385;50.878;8.050;2023-02-15T03:26:47;3.08;;;2.78;;
35257;SDS011;21385;50.878;8.050;2023-02-15T03:29:16;4.15;;;2.17;;
35257;SDS011;21385;50.878;8.050;2023-02-15T03:31:45;4.88;;;2.50;;
35257;SDS011;21385;50.878;8.050;2023-02-15T03:36:50;5.45;;;1.67;;
35257;SDS011;21385;50.878;8.050;2023-02-15T03:39:22;2.50;;;2.28;;
35257;SDS011;21385;50.878;8.050;2023-02-15T03:42:17;2.70;;;1.88;;
35257;SDS011;21385;50.878;8.050;2023-02-15T03:47:31;3.47;;;2.70;;
35257;SDS011;21385;50.878;8.050;2023-02-15T03:52:26;4.93;;;2.90;;
35257;SDS011;21385;50.878;8.050;2023-02-15T03:54:54;2.45;;;2.08;;
35257;SDS011;21385;50.878;8.050;2023-02-15T04:05:41;11.43;;;2.72;;
35257;SDS011;21385;50.878;8.050;2023-02-15T04:08:07;1.73;;;1.60;;
35257;SDS011;21385;50.878;8.050;2023-02-15T04:10:33;3.25;;;2.63;;
35257;SDS011;21385;50.878;8.050;2023-02-15T04:13:18;2.70;;;2.45;;
35257;SDS011;21385;50.878;8.050;2023-02-15T04:15:47;1.90;;;1.67;;
35257;SDS011;21385;50.878;8.050;2023-02-15T04:18:29;2.67;;;1.60;;
35257;SDS011;21385;50.878;8.050;2023-02-15T04:21:17;2.75;;;1.73;;
35257;SDS011;21385;50.878;8.050;2023-02-15T04:24:02;1.98;;;1.88;;
35257;SDS011;21385;50.878;8.050;2023-02-15T04:26:46;7.38;;;2.40;;
35257;SDS011;21385;50.878;8.050;2023-02-15T04:29:13;2.40;;;2.20;;
35257;SDS011;21385;50.878;8.050;2023-02-15T04:31:40;3.92;;;2.15;;
35257;SDS011;21385;50.878;8.050;2023-02-15T04:34:05;3.92;;;2.88;;
35257;SDS011;21385;50.878;8.050;2023-02-15T04:36:31;1.90;;;1.70;;
35257;SDS011;21385;50.878;8.050;2023-02-15T04:38:57;1.83;;;1.67;;
35257;SDS011;21385;50.878;8.050;2023-02-15T04:41:22;3.85;;;1.85;;
35257;SDS011;21385;50.878;8.050;2023-02-15T04:43:48;2.28;;;2.08;;
35257;SDS011;21385;50.878;8.050;2023-02-15T04:46:13;2.97;;;2.22;;
35257;SDS011;21385;50.878;8.050;2023-02-15T04:48:39;10.15;;;3.20;;
35257;SDS011;21385;50.878;8.050;2023-02-15T04:51:05;3.15;;;2.50;;
35257;SDS011;21385;50.878;8.050;2023-02-15T04:53:31;3.22;;;2.92;;
35257;SDS011;21385;50.878;8.050;2023-02-15T04:55:57;4.93;;;4.43;;
35257;SDS011;21385;50.878;8.050;2023-02-15T04:58:23;6.85;;;2.88;;
35257;SDS011;21385;50.878;8.050;2023-02-15T05:00:48;4.32;;;4.03;;
35257;SDS011;21385;50.878;8.050;2023-02-15T05:03:14;7.80;;;4.25;;
35257;SDS011;21385;50.878;8.050;2023-02-15T05:05:40;6.70;;;3.95;;
35257;SDS011;21385;50.878;8.050;2023-02-15T05:08:05;6.93;;;4.68;;
35257;SDS011;21385;50.878;8.050;2023-02-15T05:10:31;5.90;;;4.75;;
35257;SDS011;21385;50.878;8.050;2023-02-15T05:12:56;5.25;;;4.78;;
35257;SDS011;21385;50.878;8.050;2023-02-15T05:15:22;5.90;;;3.85;;
35257;SDS011;21385;50.878;8.050;2023-02-15T05:17:47;7.25;;;2.45;;
35257;SDS011;21385;50.878;8.050;2023-02-15T05:20:13;2.42;;;2.22;;
35257;SDS011;21385;50.878;8.050;2023-02-15T05:22:39;2.80;;;2.08;;
35257;SDS011;21385;50.878;8.050;2023-02-15T05:25:05;1.48;;;1.38;;
35257;SDS011;21385;50.878;8.050;2023-02-15T05:27:50;5.75;;;3.25;;
35257;SDS011;21385;50.878;8.050;2023-02-15T05:30:34;1.98;;;1.88;;
35257;SDS011;21385;50.878;8.050;2023-02-15T05:33:00;5.30;;;2.47;;
35257;SDS011;21385;50.878;8.050;2023-02-15T05:35:25;6.78;;;1.70;;
35257;SDS011;21385;50.878;8.050;2023-02-15T05:37:51;6.07;;;2.90;;
35257;SDS011;21385;50.878;8.050;2023-02-15T05:40:16;2.95;;;2.15;;
35257;SDS011;21385;50.878;8.050;2023-02-15T05:42:42;4.65;;;2.20;;
35257;SDS011;21385;50.878;8.050;2023-02-15T05:45:08;2.50;;;2.30;;
35257;SDS011;21385;50.878;8.050;2023-02-15T05:47:34;1.98;;;1.77;;
35257;SDS011;21385;50.878;8.050;2023-02-15T05:49:59;2.35;;;2.15;;
35257;SDS011;21385;50.878;8.050;2023-02-15T05:52:25;4.97;;;2.42;;
35257;SDS011;21385;50.878;8.050;2023-02-15T05:54:51;3.78;;;2.10;;
35257;SDS011;21385;50.878;8.050;2023-02-15T05:57:16;3.70;;;2.63;;
35257;SDS011;21385;50.878;8.050;2023-02-15T05:59:42;3.40;;;2.65;;
35257;SDS011;21385;50.878;8.050;2023-02-15T06:02:07;2.42;;;2.22;;
35257;SDS011;21385;50.878;8.050;2023-02-15T06:04:33;3.58;;;2.40;;
35257;SDS011;21385;50.878;8.050;2023-02-15T06:06:58;3.58;;;2.30;;
35257;SDS011;21385;50.878;8.050;2023-02-15T06:09:24;5.40;;;2.72;;
35257;SDS011;21385;50.878;8.050;2023-02-15T06:11:49;4.28;;;2.90;;
35257;SDS011;21385;50.878;8.050;2023-02-15T06:14:15;1.67;;;1.58;;
35257;SDS011;21385;50.878;8.050;2023-02-15T06:16:41;4.28;;;2.88;;
35257;SDS011;21385;50.878;8.050;2023-02-15T06:19:06;1.75;;;1.65;;
35257;SDS011;21385;50.878;8.050;2023-02-15T06:21:32;3.00;;;2.38;;
35257;SDS011;21385;50.878;8.050;2023-02-15T06:23:57;3.38;;;2.72;;
35257;SDS011;21385;50.878;8.050;2023-02-15T06:26:23;5.15;;;3.50;;
35257;SDS011;21385;50.878;8.050;2023-02-15T06:28:49;2.33;;;1.80;;
35257;SDS011;21385;50.878;8.050;2023-02-15T06:31:14;2.15;;;1.98;;
35257;SDS011;21385;50.878;8.050;2023-02-15T06:33:40;2.78;;;2.13;;
35257;SDS011;21385;50.878;8.050;2023-02-15T06:36:05;3.13;;;2.70;;
35257;SDS011;21385;50.878;8.050;2023-02-15T06:38:32;6.38;;;2.55;;
35257;SDS011;21385;50.878;8.050;2023-02-15T06:40:57;4.13;;;2.63;;
35257;SDS011;21385;50.878;8.050;2023-02-15T06:43:23;1.52;;;1.40;;
35257;SDS011;21385;50.878;8.050;2023-02-15T06:45:48;2.45;;;2.25;;
35257;SDS011;21385;50.878;8.050;2023-02-15T06:48:14;4.00;;;2.17;;
35257;SDS011;21385;50.878;8.050;2023-02-15T06:50:40;2.47;;;1.80;;
35257;SDS011;21385;50.878;8.050;2023-02-15T06:53:05;3.80;;;2.25;;
35257;SDS011;21385;50.878;8.050;2023-02-15T06:55:31;2.80;;;2.60;;
35257;SDS011;21385;50.878;8.050;2023-02-15T06:57:56;5.93;;;2.47;;
35257;SDS011;21385;50.878;8.050;2023-02-15T07:00:22;3.33;;;3.03;;
35257;SDS011;21385;50.878;8.050;2023-02-15T07:02:52;4.55;;;3.00;;
35257;SDS011;21385;50.878;8.050;2023-02-15T07:05:23;2.63;;;2.38;;
35257;SDS011;21385;50.878;8.050;2023-02-15T07:07:49;6.35;;;2.13;;
35257;SDS011;21385;50.878;8.050;2023-02-15T07:10:15;4.07;;;2.95;;
35257;SDS011;21385;50.878;8.050;2023-02-15T07:12:41;3.35;;;2.47;;
35257;SDS011;21385;50.878;8.050;2023-02-15T07:15:08;2.17;;;1.98;;
35257;SDS011;21385;50.878;8.050;2023-02-15T07:17:34;6.15;;;2.30;;
35257;SDS011;21385;50.878;8.050;2023-02-15T07:20:01;2.80;;;2.60;;
35257;SDS011;21385;50.878;8.050;2023-02-15T07:22:28;2.38;;;2.17;;
35257;SDS011;21385;50.878;8.050;2023-02-15T07:24:53;2.30;;;2.15;;
35257;SDS011;21385;50.878;8.050;2023-02-15T07:27:19;3.92;;;2.63;;
35257;SDS011;21385;50.878;8.050;2023-02-15T07:29:46;4.82;;;2.85;;
35257;SDS011;21385;50.878;8.050;2023-02-15T07:32:11;2.90;;;2.03;;
35257;SDS011;21385;50.878;8.050;2023-02-15T07:34:38;3.50;;;2.92;;
35257;SDS011;21385;50.878;8.050;2023-02-15T07:37:04;10.30;;;3.05;;
35257;SDS011;21385;50.878;8.050;2023-02-15T07:39:30;3.05;;;2.33;;
35257;SDS011;21385;50.878;8.050;2023-02-15T07:41:56;8.63;;;3.05;;
35257;SDS011;21385;50.878;8.050;2023-02-15T07:44:21;5.22;;;2.40;;
35257;SDS011;21385;50.878;8.050;2023-02-15T07:46:47;4.70;;;3.13;;
35257;SDS011;21385;50.878;8.050;2023-02-15T07:49:12;9.85;;;4.22;;
35257;SDS011;21385;50.878;8.050;2023-02-15T07:51:39;3.22;;;2.88;;
35257;SDS011;21385;50.878;8.050;2023-02-15T07:54:06;4.32;;;2.72;;
35257;SDS011;21385;50.878;8.050;2023-02-15T07:56:31;3.20;;;2.95;;
35257;SDS011;21385;50.878;8.050;2023-02-15T07:58:57;9.05;;;3.45;;
35257;SDS011;21385;50.878;8.050;2023-02-15T08:01:26;4.38;;;3.13;;
35257;SDS011;21385;50.878;8.050;2023-02-15T08:03:56;13.05;;;4.07;;
35257;SDS011;21385;50.878;8.050;2023-02-15T08:06:24;12.15;;;3.53;;
35257;SDS011;21385;50.878;8.050;2023-02-15T08:08:51;3.28;;;2.70;;
35257;SDS011;21385;50.878;8.050;2023-02-15T08:11:27;4.22;;;3.28;;
35257;SDS011;21385;50.878;8.050;2023-02-15T08:14:01;5.53;;;3.30;;
35257;SDS011;21385;50.878;8.050;2023-02-15T08:18:59;2.53;;;2.33;;
35257;SDS011;21385;50.878;8.050;2023-02-15T08:21:34;7.10;;;4.07;;
35257;SDS011;21385;50.878;8.050;2023-02-15T08:24:00;3.67;;;2.58;;
35257;SDS011;21385;50.878;8.050;2023-02-15T08:26:26;2.60;;;2.05;;
35257;SDS011;21385;50.878;8.050;2023-02-15T08:28:53;1.73;;;1.63;;
35257;SDS011;21385;50.878;8.050;2023-02-15T08:31:18;6.93;;;2.10;;
35257;SDS011;21385;50.878;8.050;2023-02-15T08:33:45;7.28;;;3.05;;
35257;SDS011;21385;50.878;8.050;2023-02-15T08:36:12;2.15;;;1.92;;
35257;SDS011;21385;50.878;8.050;2023-02-15T08:43:48;2.15;;;1.60;;
35257;SDS011;21385;50.878;8.050;2023-02-15T08:46:16;2.78;;;2.10;;
35257;SDS011;21385;50.878;8.050;2023-02-15T08:48:43;1.77;;;1.67;;
35257;SDS011;21385;50.878;8.050;2023-02-15T08:51:10;4.70;;;2.30;;
35257;SDS011;21385;50.878;8.050;2023-02-15T08:53:39;2.42;;;2.22;;
35257;SDS011;21385;50.878;8.050;2023-02-15T08:56:06;6.07;;;2.15;;
35257;SDS011;21385;50.878;8.050;2023-02-15T08:58:33;4.95;;;2.13;;
35257;SDS011;21385;50.878;8.050;2023-02-15T09:00:59;4.40;;;2.63;;
35257;SDS011;21385;50.878;8.050;2023-02-15T09:03:27;1.88;;;1.70;;
35257;SDS011;21385;50.878;8.050;2023-02-15T09:05:57;3.10;;;1.98;;
35257;SDS011;21385;50.878;8.050;2023-02-15T09:08:24;2.15;;;1.52;;
35257;SDS011;21385;50.878;8.050;2023-02-15T09:10:50;4.50;;;2.30;;
35257;SDS011;21385;50.878;8.050;2023-02-15T09:13:15;2.25;;;1.98;;
35257;SDS011;21385;50.878;8.050;2023-02-15T09:15:41;4.43;;;2.53;;
35257;SDS011;21385;50.878;8.050;2023-02-15T09:18:06;3.13;;;1.27;;
35257;SDS011;21385;50.878;8.050;2023-02-15T09:20:35;7.03;;;2.13;;
35257;SDS011;21385;50.878;8.050;2023-02-15T09:23:01;3.60;;;1.92;;
35257;SDS011;21385;50.878;8.050;2023-02-15T09:25:27;2.10;;;1.95;;
35257;SDS011;21385;50.878;8.050;2023-02-15T09:27:52;1.80;;;1.70;;
35257;SDS011;21385;50.878;8.050;2023-02-15T09:30:18;5.28;;;3.38;;
35257;SDS011;21385;50.878;8.050;2023-02-15T09:32:44;4.68;;;2.60;;
35257;SDS011;21385;50.878;8.050;2023-02-15T09:35:12;1.77;;;1.67;;
35257;SDS011;21385;50.878;8.050;2023-02-15T09:37:38;6.47;;;2.25;;
35257;SDS011;21385;50.878;8.050;2023-02-15T09:40:04;2.25;;;1.83;;
35257;SDS011;21385;50.878;8.050;2023-02-15T09:42:43;2.50;;;2.30;;
35257;SDS011;21385;50.878;8.050;2023-02-15T09:45:45;6.05;;;2.33;;
35257;SDS011;21385;50.878;8.050;2023-02-15T09:48:32;5.00;;;2.75;;
35257;SDS011;21385;50.878;8.050;2023-02-15T09:54:49;2.17;;;1.97;;
35257;SDS011;21385;50.878;8.050;2023-02-15T09:56:53;2.15;;;2.05;;
35257;SDS011;21385;50.878;8.050;2023-02-15T10:13:54;2.90;;;2.60;;
35257;SDS011;21385;50.878;8.050;2023-02-15T10:19:40;3.30;;;2.25;;
35257;SDS011;21385;50.878;8.050;2023-02-15T10:27:50;2.42;;;2.17;;
35257;SDS011;21385;50.878;8.050;2023-02-15T10:30:27;4.90;;;3.95;;
35257;SDS011;21385;50.878;8.050;2023-02-15T10:33:00;3.50;;;3.15;;
35257;SDS011;21385;50.878;8.050;2023-02-15T10:35:41;3.38;;;2.95;;
35257;SDS011;21385;50.878;8.050;2023-02-15T10:38:24;4.82;;;3.53;;
35257;SDS011;21385;50.878;8.050;2023-02-15T10:52:21;3.65;;;3.25;;
35257;SDS011;21385;50.878;8.050;2023-02-15T11:06:12;4.95;;;3.60;;
35257;SDS011;21385;50.878;8.050;2023-02-15T11:08:46;7.60;;;2.67;;
35257;SDS011;21385;50.878;8.050;2023-02-15T11:14:01;4.75;;;3.25;;
35257;SDS011;21385;50.878;8.050;2023-02-15T11:16:32;3.40;;;3.05;;
35257;SDS011;21385;50.878;8.050;2023-02-15T11:19:06;5.83;;;3.00;;
35257;SDS011;21385;50.878;8.050;2023-02-15T11:21:45;3.60;;;3.25;;
35257;SDS011;21385;50.878;8.050;2023-02-15T11:24:16;7.57;;;3.97;;
35257;SDS011;21385;50.878;8.050;2023-02-15T11:37:32;5.82;;;3.55;;
35257;SDS011;21385;50.878;8.050;2023-02-15T11:40:02;4.63;;;3.35;;
35257;SDS011;21385;50.878;8.050;2023-02-15T11:42:45;3.55;;;2.78;;
35257;SDS011;21385;50.878;8.050;2023-02-15T11:47:54;3.03;;;2.78;;
35257;SDS011;21385;50.878;8.050;2023-02-15T11:50:25;5.50;;;3.28;;
35257;SDS011;21385;50.878;8.050;2023-02-15T11:52:57;6.82;;;3.22;;
35257;SDS011;21385;50.878;8.050;2023-02-15T11:55:25;6.63;;;3.53;;
35257;SDS011;21385;50.878;8.050;2023-02-15T11:57:55;6.13;;;3.25;;
35257;SDS011;21385;50.878;8.050;2023-02-15T12:00:33;2.92;;;2.05;;
35257;SDS011;21385;50.878;8.050;2023-02-15T12:03:07;6.68;;;3.97;;
35257;SDS011;21385;50.878;8.050;2023-02-15T12:05:40;5.45;;;2.95;;
35257;SDS011;21385;50.878;8.050;2023-02-15T12:08:12;5.22;;;3.72;;
35257;SDS011;21385;50.878;8.050;2023-02-15T12:10:53;4.63;;;3.33;;
35257;SDS011;21385;50.878;8.050;2023-02-15T12:13:25;4.88;;;4.10;;
35257;SDS011;21385;50.878;8.050;2023-02-15T12:15:52;3.67;;;3.17;;
35257;SDS011;21385;50.878;8.050;2023-02-15T12:21:05;3.83;;;3.05;;
35257;SDS011;21385;50.878;8.050;2023-02-15T12:23:58;3.88;;;3.47;;
35257;SDS011;21385;50.878;8.050;2023-02-15T12:26:42;3.88;;;3.42;;
35257;SDS011;21385;50.878;8.050;2023-02-15T12:29:17;3.20;;;2.90;;
35257;SDS011;21385;50.878;8.050;2023-02-15T12:31:50;4.63;;;4.22;;
35257;SDS011;21385;50.878;8.050;2023-02-15T12:34:28;4.55;;;3.95;;
35257;SDS011;21385;50.878;8.050;2023-02-15T12:36:56;4.47;;;3.60;;
35257;SDS011;21385;50.878;8.050;2023-02-15T12:39:28;3.72;;;3.05;;
35257;SDS011;21385;50.878;8.050;2023-02-15T12:44:28;3.95;;;3.53;;
35257;SDS011;21385;50.878;8.050;2023-02-15T12:49:30;10.77;;;6.60;;
35257;SDS011;21385;50.878;8.050;2023-02-15T12:51:58;8.07;;;4.05;;
35257;SDS011;21385;50.878;8.050;2023-02-15T12:56:56;4.75;;;3.65;;
35257;SDS011;21385;50.878;8.050;2023-02-15T12:59:23;6.97;;;4.20;;
35257;SDS011;21385;50.878;8.050;2023-02-15T13:01:49;7.20;;;3.88;;
35257;SDS011;21385;50.878;8.050;2023-02-15T13:06:52;3.67;;;3.28;;
35257;SDS011;21385;50.878;8.050;2023-02-15T13:09:20;3.33;;;3.03;;
35257;SDS011;21385;50.878;8.050;2023-02-15T13:12:21;4.50;;;3.10;;
35257;SDS011;21385;50.878;8.050;2023-02-15T13:14:51;6.13;;;4.70;;
35257;SDS011;21385;50.878;8.050;2023-02-15T13:17:26;6.70;;;4.57;;
35257;SDS011;21385;50.878;8.050;2023-02-15T13:20:03;4.88;;;3.67;;
35257;SDS011;21385;50.878;8.050;2023-02-15T13:22:38;5.10;;;3.42;;
35257;SDS011;21385;50.878;8.050;2023-02-15T13:27:44;6.53;;;3.92;;
35257;SDS011;21385;50.878;8.050;2023-02-15T13:35:14;5.18;;;4.15;;
35257;SDS011;21385;50.878;8.050;2023-02-15T14:15:44;4.47;;;3.75;;
35257;SDS011;21385;50.878;8.050;2023-02-15T14:18:20;4.72;;;3.85;;
35257;SDS011;21385;50.878;8.050;2023-02-15T14:21:34;7.10;;;4.65;;
35257;SDS011;21385;50.878;8.050;2023-02-15T14:26:30;6.70;;;4.15;;
35257;SDS011;21385;50.878;8.050;2023-02-15T14:32:00;6.80;;;3.78;;
35257;SDS011;21385;50.878;8.050;2023-02-15T14:34:48;7.80;;;5.38;;
35257;SDS011;21385;50.878;8.050;2023-02-15T14:37:19;6.70;;;4.70;;
35257;SDS011;21385;50.878;8.050;2023-02-15T14:43:07;8.02;;;4.50;;
35257;SDS011;21385;50.878;8.050;2023-02-15T14:45:42;5.05;;;4.53;;
35257;SDS011;21385;50.878;8.050;2023-02-15T14:48:21;6.47;;;5.20;;
35257;SDS011;21385;50.878;8.050;2023-02-15T14:50:54;7.22;;;3.95;;
35257;SDS011;21385;50.878;8.050;2023-02-15T14:58:54;5.43;;;4.63;;
35257;SDS011;21385;50.878;8.050;2023-02-15T15:03:53;6.78;;;5.25;;
35257;SDS011;21385;50.878;8.050;2023-02-15T15:06:32;6.40;;;4.78;;
35257;SDS011;21385;50.878;8.050;2023-02-15T15:09:10;6.07;;;4.70;;
35257;SDS011;21385;50.878;8.050;2023-02-15T15:11:48;5.43;;;4.88;;
35257;SDS011;21385;50.878;8.050;2023-02-15T15:17:00;5.65;;;4.85;;
35257;SDS011;21385;50.878;8.050;2023-02-15T15:19:56;9.10;;;5.53;;
35257;SDS011;21385;50.878;8.050;2023-02-15T15:22:23;7.97;;;5.38;;
35257;SDS011;21385;50.878;8.050;2023-02-15T15:24:56;5.97;;;4.75;;
35257;SDS011;21385;50.878;8.050;2023-02-15T15:49:02;10.15;;;5.22;;
35257;SDS011;21385;50.878;8.050;2023-02-15T15:51:35;5.93;;;5.35;;
35257;SDS011;21385;50.878;8.050;2023-02-15T15:54:05;10.80;;;4.97;;
35257;SDS011;21385;50.878;8.050;2023-02-15T15:56:32;11.38;;;4.90;;
35257;SDS011;21385;50.878;8.050;2023-02-15T15:59:01;6.65;;;4.82;;
35257;SDS011;21385;50.878;8.050;2023-02-15T16:01:31;7.30;;;4.40;;
35257;SDS011;21385;50.878;8.050;2023-02-15T16:04:03;8.63;;;5.32;;
35257;SDS011;21385;50.878;8.050;2023-02-15T16:06:30;7.72;;;5.72;;
35257;SDS011;21385;50.878;8.050;2023-02-15T16:11:43;4.75;;;4.32;;
35257;SDS011;21385;50.878;8.050;2023-02-15T16:14:14;7.47;;;4.82;;
35257;SDS011;21385;50.878;8.050;2023-02-15T16:16:46;9.05;;;4.55;;
35257;SDS011;21385;50.878;8.050;2023-02-15T16:19:48;4.93;;;4.40;;
35257;SDS011;21385;50.878;8.050;2023-02-15T16:22:10;6.05;;;5.05;;
35257;SDS011;21385;50.878;8.050;2023-02-15T16:25:15;4.80;;;3.97;;
35257;SDS011;21385;50.878;8.050;2023-02-15T16:27:46;7.88;;;4.47;;
35257;SDS011;21385;50.878;8.050;2023-02-15T16:30:24;8.60;;;4.25;;
35257;SDS011;21385;50.878;8.050;2023-02-15T16:35:35;7.68;;;5.10;;
35257;SDS011;21385;50.878;8.050;2023-02-15T16:38:02;12.40;;;5.70;;
35257;SDS011;21385;50.878;8.050;2023-02-15T16:40:41;5.32;;;4.65;;
35257;SDS011;21385;50.878;8.050;2023-02-15T16:43:23;10.40;;;5.18;;
35257;SDS011;21385;50.878;8.050;2023-02-15T16:45:51;8.23;;;5.47;;
35257;SDS011;21385;50.878;8.050;2023-02-15T16:48:23;6.65;;;5.38;;
35257;SDS011;21385;50.878;8.050;2023-02-15T16:50:51;7.97;;;5.03;;
35257;SDS011;21385;50.878;8.050;2023-02-15T16:53:24;5.82;;;4.03;;
35257;SDS011;21385;50.878;8.050;2023-02-15T16:55:57;9.40;;;5.72;;
35257;SDS011;21385;50.878;8.050;2023-02-15T16:58:48;6.40;;;4.95;;
35257;SDS011;21385;50.878;8.050;2023-02-15T17:01:14;10.55;;;5.32;;
35257;SDS011;21385;50.878;8.050;2023-02-15T17:03:40;12.52;;;4.95;;
35257;SDS011;21385;50.878;8.050;2023-02-15T17:06:23;7.70;;;5.57;;
35257;SDS011;21385;50.878;8.050;2023-02-15T17:09:02;5.28;;;4.13;;
35257;SDS011;21385;50.878;8.050;2023-02-15T17:11:33;8.98;;;5.40;;
35257;SDS011;21385;50.878;8.050;2023-02-15T17:16:33;11.85;;;5.63;;
35257;SDS011;21385;50.878;8.050;2023-02-15T17:21:33;5.63;;;4.57;;
35257;SDS011;21385;50.878;8.050;2023-02-15T17:24:06;8.45;;;6.22;;
35257;SDS011;21385;50.878;8.050;2023-02-15T17:26:40;8.95;;;6.22;;
35257;SDS011;21385;50.878;8.050;2023-02-15T17:29:11;7.45;;;5.88;;
35257;SDS011;21385;50.878;8.050;2023-02-15T17:31:43;5.65;;;3.97;;
35257;SDS011;21385;50.878;8.050;2023-02-15T17:34:41;10.90;;;6.15;;
35257;SDS011;21385;50.878;8.050;2023-02-15T17:37:14;5.82;;;4.95;;
35257;SDS011;21385;50.878;8.050;2023-02-15T17:39:56;9.88;;;5.82;;
35257;SDS011;21385;50.878;8.050;2023-02-15T17:42:22;9.95;;;5.63;;
35257;SDS011;21385;50.878;8.050;2023-02-15T17:44:48;9.32;;;6.00;;
35257;SDS011;21385;50.878;8.050;2023-02-15T17:47:15;9.65;;;5.63;;
35257;SDS011;21385;50.878;8.050;2023-02-15T17:49:43;15.95;;;6.75;;
35257;SDS011;21385;50.878;8.050;2023-02-15T17:52:12;12.02;;;8.13;;
35257;SDS011;21385;50.878;8.050;2023-02-15T17:54:39;17.63;;;6.93;;
35257;SDS011;21385;50.878;8.050;2023-02-15T17:57:23;12.13;;;6.45;;
35257;SDS011;21385;50.878;8.050;2023-02-15T17:59:50;7.53;;;5.20;;
35257;SDS011;21385;50.878;8.050;2023-02-15T18:02:35;8.93;;;6.22;;
35257;SDS011;21385;50.878;8.050;2023-02-15T18:05:19;9.25;;;5.55;;
35257;SDS011;21385;50.878;8.050;2023-02-15T18:08:05;9.02;;;5.72;;
35257;SDS011;21385;50.878;8.050;2023-02-15T18:11:00;17.80;;;7.40;;
35257;SDS011;21385;50.878;8.050;2023-02-15T18:13:44;6.30;;;5.63;;
35257;SDS011;21385;50.878;8.050;2023-02-15T18:16:12;8.50;;;5.78;;
35257;SDS011;21385;50.878;8.050;2023-02-15T18:18:39;8.38;;;7.22;;
35257;SDS011;21385;50.878;8.050;2023-02-15T18:21:05;7.70;;;5.80;;
35257;SDS011;21385;50.878;8.050;2023-02-15T18:23:34;10.90;;;7.05;;
35257;SDS011;21385;50.878;8.050;2023-02-15T18:25:59;14.13;;;6.90;;
35257;SDS011;21385;50.878;8.050;2023-02-15T18:28:25;12.93;;;7.03;;
35257;SDS011;21385;50.878;8.050;2023-02-15T18:30:50;11.35;;;6.60;;
35257;SDS011;21385;50.878;8.050;2023-02-15T18:33:35;10.68;;;7.63;;
35257;SDS011;21385;50.878;8.050;2023-02-15T18:36:10;11.88;;;6.28;;
35257;SDS011;21385;50.878;8.050;2023-02-15T18:38:40;8.90;;;6.90;;
35257;SDS011;21385;50.878;8.050;2023-02-15T18:41:06;17.58;;;8.75;;
35257;SDS011;21385;50.878;8.050;2023-02-15T18:43:31;17.02;;;10.75;;
35257;SDS011;21385;50.878;8.050;2023-02-15T18:45:57;10.02;;;7.45;;
35257;SDS011;21385;50.878;8.050;2023-02-15T18:48:23;18.65;;;5.82;;
35257;SDS011;21385;50.878;8.050;2023-02-15T18:50:48;9.77;;;5.82;;
35257;SDS011;21385;50.878;8.050;2023-02-15T18:53:17;14.63;;;7.18;;
35257;SDS011;21385;50.878;8.050;2023-02-15T18:55:44;13.75;;;6.03;;
35257;SDS011;21385;50.878;8.050;2023-02-15T18:58:21;9.70;;;6.60;;
35257;SDS011;21385;50.878;8.050;2023-02-15T19:00:51;7.05;;;5.55;;